Pojoaque, New Mexico
Current Conditions -  °F | °C
As of 8:53 PM on Wednesday 26 Nov 2014 (Local Time) from KSAF Reporting Station
Clear Clear  
Wind Chill: 28°   Ceiling: Unl
Heat Index: 34°   Visibility: 10mi
Dew Point: 19°   Wind: 7mph
Humidity: 54%   Direction: 360°N
Pressure: 30.4"   Gusts: NA
Location:  35.7017°N, 105.921°W
Report Text: KSAF 270353Z AUTO 36006KT 10SM CLR 01/M07 A3040 RMK AO2 SLP281 T00111072
Loading
Personal Weather Stations






























Interactive Weather Map New forecast layout! Learn more

10-Day Weather Forecast

Advertisements
Track Severe Weather on mobile